Time;durP1;ratioP1;P1;durP2;ratioP2;P2;SDS_P1;SDS_P2;PMS_P1;PMS_P2;Temp;Humidity;BMP_temperature;BMP_pressure;BME280_temperature;BME280_humidity;BME280_pressure;Samples;Min_cycle;Max_cycle;Signal;HPM_P1;HPM_P2
2023/09/07 00:00:48;;;;;;;21.20;20.00;;;;;;;-141.02;71.52;39282.44;5135270;27;20292;-60
2023/09/07 00:03:15;;;;;;;21.52;20.33;;;;;;;-141.02;71.46;39263.25;5134774;27;20228;-60
2023/09/07 00:05:42;;;;;;;21.38;20.17;;;;;;;-141.02;71.80;39263.25;5135118;27;20681;-60
2023/09/07 00:08:09;;;;;;;21.70;20.50;;;;;;;-141.02;71.65;39293.94;5135191;27;20292;-60
2023/09/07 00:10:37;;;;;;;21.60;20.40;;;;;;;-141.02;71.81;39270.94;5134823;27;20581;-60
2023/09/07 00:13:05;;;;;;;21.45;20.25;;;;;;;-141.02;72.09;39282.44;5135118;27;20275;-60
2023/09/07 00:15:37;;;;;;;21.60;20.40;;;;;;;-141.02;71.67;39293.94;5134688;27;20192;-60
2023/09/07 00:18:04;;;;;;;21.48;20.27;;;;;;;-141.02;71.89;39290.13;5134953;27;20189;-60
2023/09/07 00:20:38;;;;;;;21.77;20.55;;;;;;;-141.02;71.48;39278.59;5134938;27;20193;-60
2023/09/07 00:23:05;;;;;;;21.92;20.67;;;;;;;-141.02;71.74;39290.13;5134782;27;20551;-60
2023/09/07 00:25:32;;;;;;;21.48;20.27;;;;;;;-141.02;71.67;39282.44;5134532;27;20189;-60
2023/09/07 00:28:00;;;;;;;21.67;20.48;;;;;;;-141.02;71.58;39293.94;5134383;27;20662;-60
2023/09/07 00:30:27;;;;;;;21.95;20.75;;;;;;;-141.02;71.90;39286.28;5134376;27;20199;-60
2023/09/07 00:32:55;;;;;;;21.80;20.60;;;;;;;-141.02;72.88;39297.78;5134666;27;20314;-61
2023/09/07 00:35:22;;;;;;;21.60;20.40;;;;;;;-141.02;74.51;39278.59;5134224;27;20196;-60
2023/09/07 00:37:49;;;;;;;21.77;20.58;;;;;;;-141.02;75.68;39267.09;5133607;27;20266;-60
2023/09/07 00:40:16;;;;;;;21.77;20.58;;;;;;;-141.02;76.15;39282.44;5134176;27;20287;-60
2023/09/07 00:42:43;;;;;;;21.75;20.55;;;;;;;-141.02;77.11;39307.38;5134423;27;20224;-60
2023/09/07 00:45:54;;;;;;;21.80;20.60;;;;;;;-141.02;77.55;39251.75;5134456;27;20188;-60
2023/09/07 00:48:23;;;;;;;22.00;20.80;;;;;;;-141.02;77.00;39259.44;5133963;27;20185;-60
2023/09/07 00:50:52;;;;;;;21.98;20.77;;;;;;;-141.02;77.15;39278.59;5133946;27;20203;-60
2023/09/07 00:53:20;;;;;;;21.75;20.55;;;;;;;-141.02;77.38;39263.25;5133880;27;20704;-60
2023/09/07 00:55:47;;;;;;;21.55;20.35;;;;;;;-141.02;77.76;39309.28;5133829;27;20284;-60
2023/09/07 00:58:14;;;;;;;22.15;20.95;;;;;;;-141.02;77.24;39290.13;5134141;27;20202;-60
2023/09/07 01:04:06;;;;;;;22.15;20.95;;;;;;;-141.02;77.77;39274.78;5132828;27;20797;-60
2023/09/07 01:07:25;;;;;;;21.05;19.95;;;;;;;-141.02;77.88;39246.00;5133687;27;20199;-59
2023/09/07 01:10:01;;;;;;;21.38;20.17;;;;;;;-141.02;77.68;39251.75;5133350;27;20196;-60
2023/09/07 01:12:28;;;;;;;21.45;20.25;;;;;;;-141.02;78.28;39267.09;5134057;27;20211;-60
2023/09/07 01:15:32;;;;;;;21.10;20.00;;;;;;;-141.02;78.12;39269.00;5133821;27;20208;-60
2023/09/07 01:18:03;;;;;;;20.88;19.67;;;;;;;-141.02;78.86;39263.25;5133382;27;20216;-60
2023/09/07 01:20:51;;;;;;;21.60;20.40;;;;;;;-141.02;79.87;39293.94;5134478;27;20279;-59
2023/09/07 01:23:20;;;;;;;21.60;20.40;;;;;;;-141.02;80.46;39263.25;5133481;27;20278;-59
2023/09/07 01:25:47;;;;;;;21.65;20.45;;;;;;;-141.02;80.47;39263.25;5133670;27;20196;-60
2023/09/07 01:28:15;;;;;;;21.58;20.38;;;;;;;-141.02;81.58;39290.13;5133640;27;20295;-61
2023/09/07 01:30:42;;;;;;;20.77;19.67;;;;;;;-141.02;81.35;39255.59;5133326;27;20242;-60
2023/09/07 01:33:09;;;;;;;20.90;19.80;;;;;;;-141.02;81.24;39259.44;5133524;27;20279;-60
2023/09/07 01:35:37;;;;;;;20.88;19.77;;;;;;;-141.02;81.41;39282.44;5133585;27;20199;-60
2023/09/07 01:38:36;;;;;;;20.92;19.75;;;;;;;-141.02;81.59;39263.25;5133132;27;20795;-59
2023/09/07 01:41:11;;;;;;;21.15;19.95;;;;;;;-141.02;82.08;39263.25;5133158;27;20239;-59
2023/09/07 01:43:38;;;;;;;20.88;19.77;;;;;;;-141.02;82.07;39313.13;5133805;27;20187;-60
2023/09/07 01:46:05;;;;;;;20.83;19.73;;;;;;;-141.02;81.57;39263.25;5133395;27;20230;-60
2023/09/07 01:52:05;;;;;;;21.25;20.13;;;;;;;-141.02;82.22;39270.94;5119553;27;20196;-60
2023/09/07 01:54:33;;;;;;;21.02;19.92;;;;;;;-141.02;82.62;39247.91;5133289;27;20224;-60
2023/09/07 01:57:00;;;;;;;21.02;19.92;;;;;;;-141.02;83.85;39278.59;5132894;27;20583;-60
2023/09/07 01:59:30;;;;;;;21.15;20.05;;;;;;;-141.02;83.03;39278.59;5132900;27;20228;-59
2023/09/07 02:01:57;;;;;;;21.00;19.90;;;;;;;-141.02;82.35;39286.28;5132997;27;20583;-59
2023/09/07 02:04:24;;;;;;;21.23;20.05;;;;;;;-141.02;82.46;39253.69;5132762;27;20612;-60
2023/09/07 02:06:57;;;;;;;21.60;20.40;;;;;;;-141.02;83.15;39290.13;5133182;27;20201;-60
2023/09/07 02:09:30;;;;;;;20.92;19.83;;;;;;;-141.02;83.33;39293.94;5133231;27;20228;-60
2023/09/07 02:12:36;;;;;;;20.42;19.33;;;;;;;-141.02;84.31;39259.44;5132814;27;20576;-59
2023/09/07 02:15:40;;;;;;;20.85;19.75;;;;;;;-141.02;84.57;39228.75;5131256;27;20199;-60
2023/09/07 02:18:13;;;;;;;20.67;19.58;;;;;;;-141.02;85.47;39280.53;5133257;27;20310;-69
2023/09/07 02:24:03;;;;;;;20.40;19.30;;;;;;;-141.02;85.77;39240.25;5132852;28;20180;-60
2023/09/07 02:27:04;;;;;;;20.02;19.02;;;;;;;-141.02;85.11;39274.78;5132737;27;20735;-60
2023/09/07 02:29:44;;;;;;;20.85;19.75;;;;;;;-141.02;84.09;39278.59;5132744;27;20199;-59
2023/09/07 02:32:12;;;;;;;21.15;19.95;;;;;;;-141.02;83.91;39278.59;5132706;27;20283;-59
2023/09/07 02:34:39;;;;;;;20.63;19.52;;;;;;;-141.02;82.63;39251.75;5132658;27;20280;-59
2023/09/07 02:37:06;;;;;;;21.20;20.10;;;;;;;-141.02;82.20;39251.75;5132775;27;20303;-59
2023/09/07 02:39:36;;;;;;;21.15;19.95;;;;;;;-141.02;82.01;39290.13;5132653;27;20230;-59
2023/09/07 02:42:03;;;;;;;21.33;20.13;;;;;;;-141.02;82.31;39255.59;5132488;27;20225;-59
2023/09/07 02:44:30;;;;;;;20.67;19.58;;;;;;;-141.02;81.38;39305.44;5132567;27;20189;-59
2023/09/07 02:46:57;;;;;;;21.30;20.10;;;;;;;-141.02;81.29;39270.94;5132506;27;20228;-59
2023/09/07 02:49:26;;;;;;;20.73;19.63;;;;;;;-141.02;82.49;39278.59;5132751;27;20275;-60
2023/09/07 02:51:53;;;;;;;20.77;19.67;;;;;;;-141.02;81.21;39255.59;5132782;27;20200;-59
2023/09/07 02:54:19;;;;;;;21.20;20.00;;;;;;;-141.02;81.27;39267.09;5132448;27;20227;-60
2023/09/07 02:56:46;;;;;;;20.88;19.67;;;;;;;-141.02;81.36;39269.00;5132650;27;20234;-59
2023/09/07 02:59:21;;;;;;;20.98;19.77;;;;;;;-141.02;81.62;39255.59;5132487;27;20288;-69
2023/09/07 03:01:48;;;;;;;20.45;19.35;;;;;;;-141.02;81.58;39292.03;5135073;27;20202;-59
2023/09/07 03:04:15;;;;;;;20.35;19.25;;;;;;;-141.02;82.37;39286.28;5135925;27;20779;-59
2023/09/07 03:06:44;;;;;;;20.35;19.25;;;;;;;-141.02;81.57;39282.44;5136331;27;20227;-60
2023/09/07 03:09:11;;;;;;;20.60;19.50;;;;;;;-141.02;82.38;39286.28;5136375;27;20654;-68
2023/09/07 03:11:59;;;;;;;20.58;19.48;;;;;;;-141.02;82.66;39259.44;5135954;27;20199;-59
2023/09/07 03:14:26;;;;;;;20.45;19.35;;;;;;;-141.02;82.28;39282.44;5136298;27;20192;-59
2023/09/07 03:16:54;;;;;;;20.92;19.75;;;;;;;-141.02;82.11;39288.19;5136087;27;20277;-60
2023/09/07 03:19:28;;;;;;;20.52;19.42;;;;;;;-141.02;82.48;39301.63;5135892;27;20189;-59
2023/09/07 03:21:57;;;;;;;20.80;19.60;;;;;;;-141.02;82.37;39270.94;5136125;27;20195;-60
2023/09/07 03:24:24;;;;;;;20.38;19.27;;;;;;;-141.02;82.73;39278.59;5136070;27;20188;-59
2023/09/07 03:26:50;;;;;;;20.42;19.33;;;;;;;-141.02;82.16;39272.84;5135569;27;20283;-59
2023/09/07 03:29:17;;;;;;;20.27;19.17;;;;;;;-141.02;82.90;39293.94;5135968;27;20224;-59
2023/09/07 03:31:44;;;;;;;20.17;19.08;;;;;;;-141.02;83.57;39282.44;5135602;27;20279;-59
2023/09/07 03:34:11;;;;;;;20.42;19.35;;;;;;;-141.02;83.41;39259.44;5135850;27;20201;-59
2023/09/07 03:36:39;;;;;;;20.33;19.23;;;;;;;-141.02;83.41;39309.28;5135705;27;20228;-60
2023/09/07 03:39:07;;;;;;;20.75;19.65;;;;;;;-141.02;83.35;39290.13;5135729;27;20192;-60
2023/09/07 03:41:35;;;;;;;20.33;19.23;;;;;;;-141.02;83.83;39297.78;5135479;27;20658;-59
2023/09/07 03:44:02;;;;;;;19.67;18.58;;;;;;;-141.02;84.84;39303.53;5135331;27;20196;-59
2023/09/07 03:46:29;;;;;;;20.15;19.05;;;;;;;-141.02;85.97;39332.31;5135627;27;20246;-59
2023/09/07 03:48:56;;;;;;;19.55;18.45;;;;;;;-141.02;87.38;39332.31;5135521;27;20193;-60
2023/09/07 03:51:23;;;;;;;19.65;18.55;;;;;;;-141.02;86.78;39347.66;5135506;27;20193;-59
2023/09/07 03:53:50;;;;;;;19.70;18.60;;;;;;;-141.02;86.55;39386.00;5135465;27;20196;-59
2023/09/07 03:56:18;;;;;;;19.45;18.40;;;;;;;-141.02;86.61;39443.53;5135164;27;20260;-60
2023/09/07 03:58:47;;;;;;;18.77;17.77;;;;;;;-141.02;88.33;39455.03;5135014;27;20277;-59
2023/09/07 04:01:14;;;;;;;18.80;17.80;;;;;;;-141.02;90.34;39506.81;5135340;27;20192;-59
2023/09/07 04:03:41;;;;;;;19.10;18.00;;;;;;;-141.02;90.39;39570.13;5134763;27;20228;-59
2023/09/07 04:06:08;;;;;;;18.55;17.55;;;;;;;-141.02;90.50;39635.31;5135550;27;20228;-59
2023/09/07 04:08:35;;;;;;;18.30;17.30;;;;;;;-141.02;93.18;39623.81;5134816;27;20231;-59
2023/09/07 04:11:05;;;;;;;17.70;16.80;;;;;;;-141.02;94.99;39742.72;5134846;27;20280;-59
2023/09/07 04:13:33;;;;;;;18.10;17.10;;;;;;;-141.02;94.22;39827.13;5135071;27;20210;-59
2023/09/07 04:16:00;;;;;;;18.52;17.55;;;;;;;-141.02;92.67;39900.00;5135016;27;20275;-59
2023/09/07 04:18:27;;;;;;;18.35;17.35;;;;;;;-141.02;91.63;39999.75;5134565;27;20263;-59
2023/09/07 04:21:05;;;;;;;18.70;17.70;;;;;;;-141.02;92.01;40026.59;5135658;27;20197;-59
2023/09/07 04:23:32;;;;;;;18.00;17.00;;;;;;;-141.02;95.31;40120.59;5135244;27;20188;-59
2023/09/07 04:26:05;;;;;;;17.52;16.63;;;;;;;-141.02;99.98;40205.00;5133823;27;20192;-59
2023/09/07 04:28:34;;;;;;;16.50;15.70;;;;;;;-141.02;100.00;40266.38;5133776;27;20189;-61
2023/09/07 04:31:01;;;;;;;15.90;15.20;;;;;;;-141.02;100.00;40256.78;5134645;27;20275;-59
2023/09/07 04:33:30;;;;;;;16.10;15.40;;;;;;;-141.02;100.00;40283.63;5134368;27;20192;-59
2023/09/07 04:35:57;;;;;;;16.17;15.48;;;;;;;-141.02;100.00;40343.09;5134619;27;20241;-61
2023/09/07 04:38:24;;;;;;;17.20;16.50;;;;;;;-141.02;100.00;40460.13;5134494;27;20306;-61
2023/09/07 04:40:51;;;;;;;17.30;16.50;;;;;;;-141.02;100.00;40613.59;5134543;27;20200;-61
2023/09/07 04:43:18;;;;;;;16.70;16.10;;;;;;;-141.02;100.00;40705.69;5134182;27;20188;-61
2023/09/07 04:45:49;;;;;;;14.50;14.00;;;;;;;-141.02;100.00;40966.63;5134467;27;20685;-60
2023/09/07 04:48:16;;;;;;;14.20;13.80;;;;;;;-141.02;100.00;41177.69;5134315;27;20220;-60
2023/09/07 04:50:43;;;;;;;14.30;13.88;;;;;;;-141.02;100.00;41323.50;5134084;27;20599;-60
2023/09/07 04:53:10;;;;;;;13.18;12.77;;;;;;;-141.02;100.00;41120.13;5134372;27;20280;-60
2023/09/07 04:55:39;;;;;;;12.82;12.43;;;;;;;-141.02;100.00;41173.84;5134251;27;20231;-60
2023/09/07 04:58:07;;;;;;;13.82;13.43;;;;;;;-141.02;100.00;41419.47;5134174;27;20270;-60
2023/09/07 05:00:34;;;;;;;14.50;14.00;;;;;;;-141.02;100.00;41482.78;5134708;27;20658;-61
2023/09/07 05:03:02;;;;;;;13.32;12.93;;;;;;;-141.02;100.00;41684.28;5133946;27;20203;-61
2023/09/07 05:05:29;;;;;;;15.38;14.88;;;;;;;-141.02;100.00;41622.88;5133771;27;20567;-61
2023/09/07 05:08:18;;;;;;;15.13;14.63;;;;;;;-141.02;100.00;41810.94;5133775;27;20189;-62
2023/09/07 05:10:45;;;;;;;13.50;13.10;;;;;;;-141.02;100.00;41691.97;5133608;27;20650;-63
2023/09/07 05:13:12;;;;;;;14.30;13.80;;;;;;;-141.02;100.00;41661.25;5133632;27;20300;-64
2023/09/07 05:15:48;;;;;;;15.82;15.23;;;;;;;-141.02;100.00;42144.91;5133593;27;20680;-64
2023/09/07 05:18:17;;;;;;;15.52;15.02;;;;;;;-141.02;100.00;42252.38;5133540;27;20218;-64
2023/09/07 05:20:45;;;;;;;15.45;14.95;;;;;;;-141.02;100.00;42214.00;5133451;27;20540;-63
2023/09/07 05:23:12;;;;;;;14.90;14.40;;;;;;;-141.02;100.00;41853.16;5133080;27;20203;-62
2023/09/07 05:25:45;;;;;;;13.80;13.40;;;;;;;-141.02;100.00;41824.38;5133789;27;20196;-61
2023/09/07 05:28:13;;;;;;;13.45;13.05;;;;;;;-141.02;100.00;41563.38;5133428;27;20190;-61
2023/09/07 05:30:41;;;;;;;13.43;13.02;;;;;;;-141.02;100.00;41676.59;5133342;27;20654;-61
2023/09/07 05:33:09;;;;;;;13.88;13.38;;;;;;;-141.02;100.00;41738.03;5133522;27;20197;-61
2023/09/07 05:35:37;;;;;;;14.27;13.77;;;;;;;-141.02;100.00;41784.06;5133643;27;20200;-62
2023/09/07 05:38:05;;;;;;;14.57;14.07;;;;;;;-141.02;100.00;41571.06;5133413;27;20224;-61
2023/09/07 05:40:35;;;;;;;15.48;14.88;;;;;;;-141.02;100.00;41642.06;5133512;27;20196;-61
2023/09/07 05:43:03;;;;;;;15.98;15.38;;;;;;;-141.02;100.00;41469.34;5133129;27;20728;-61
2023/09/07 05:45:31;;;;;;;15.85;15.25;;;;;;;-141.02;100.00;41523.09;5133500;27;20246;-60
2023/09/07 05:47:58;;;;;;;15.85;15.25;;;;;;;-141.02;100.00;41544.19;5133168;27;20685;-61
2023/09/07 05:50:25;;;;;;;16.08;15.38;;;;;;;-141.02;100.00;41649.75;5133343;27;20224;-61
2023/09/07 05:52:53;;;;;;;16.20;15.50;;;;;;;-141.02;100.00;41755.28;5133049;27;20196;-61
2023/09/07 05:55:20;;;;;;;15.90;15.20;;;;;;;-141.02;100.00;41711.16;5133282;27;20200;-60
2023/09/07 05:57:48;;;;;;;15.75;15.05;;;;;;;-141.02;100.00;41555.72;5132936;27;20236;-67
2023/09/07 06:00:16;;;;;;;16.80;16.00;;;;;;;-141.02;100.00;41480.88;5132920;27;20575;-61
2023/09/07 06:02:44;;;;;;;16.65;15.85;;;;;;;-141.02;100.00;41484.72;5132910;27;20196;-60
2023/09/07 06:05:11;;;;;;;16.58;15.77;;;;;;;-141.02;100.00;41563.38;5133019;27;20658;-60
2023/09/07 06:07:38;;;;;;;17.10;16.20;;;;;;;-141.02;100.00;41638.22;5132839;27;20658;-60
2023/09/07 06:10:07;;;;;;;16.58;15.77;;;;;;;-141.02;100.00;41799.44;5133437;27;20192;-60
2023/09/07 06:12:35;;;;;;;17.13;16.23;;;;;;;-141.02;98.00;41630.56;5132778;27;20283;-61
2023/09/07 06:15:02;;;;;;;17.27;16.38;;;;;;;-141.02;99.02;41753.38;5132884;27;20192;-67
2023/09/07 06:17:29;;;;;;;17.25;16.35;;;;;;;-141.02;100.00;41968.31;5133076;27;20193;-60
2023/09/07 06:19:57;;;;;;;17.67;16.67;;;;;;;-141.02;97.23;42054.69;5132796;27;20284;-60
2023/09/07 06:22:24;;;;;;;17.63;16.63;;;;;;;-141.02;93.70;42177.53;5132737;27;20574;-60
2023/09/07 06:24:51;;;;;;;18.13;17.05;;;;;;;-141.02;89.52;42323.41;5132973;27;20196;-60
2023/09/07 06:27:20;;;;;;;19.17;18.08;;;;;;;-141.02;87.13;42214.00;5133061;27;20193;-60
2023/09/07 06:29:47;;;;;;;19.08;18.08;;;;;;;-141.02;86.43;42294.63;5132748;27;20214;-60
2023/09/07 06:32:14;;;;;;;18.60;17.60;;;;;;;-141.02;85.88;42116.09;5132634;27;20766;-60
2023/09/07 06:34:41;;;;;;;18.80;17.80;;;;;;;-141.02;84.68;42110.34;5132996;27;20251;-60
2023/09/07 06:37:08;;;;;;;19.20;18.10;;;;;;;-141.02;83.62;41903.06;5135973;27;20192;-60
2023/09/07 06:39:35;;;;;;;18.98;17.88;;;;;;;-141.02;81.43;41759.13;5136547;27;20311;-60
2023/09/07 06:42:03;;;;;;;19.30;18.20;;;;;;;-141.02;81.25;41603.69;5137422;27;20223;-61
2023/09/07 06:44:31;;;;;;;19.15;18.05;;;;;;;-141.02;81.09;41561.47;5136546;27;20706;-60
2023/09/07 06:46:58;;;;;;;18.50;17.50;;;;;;;-141.02;82.74;41768.72;5136837;27;20197;-60
2023/09/07 06:49:25;;;;;;;19.35;18.25;;;;;;;-141.02;80.55;41592.16;5136723;27;20188;-60
2023/09/07 06:51:52;;;;;;;19.50;18.50;;;;;;;-141.02;81.47;41699.63;5136738;27;20222;-60
2023/09/07 06:54:19;;;;;;;19.45;18.45;;;;;;;-141.02;79.53;41651.66;5136298;27;20677;-60
2023/09/07 06:56:46;;;;;;;19.33;18.33;;;;;;;-141.02;78.83;41661.25;5136343;27;20188;-59
2023/09/07 06:59:14;;;;;;;19.05;18.05;;;;;;;-141.02;79.19;41761.06;5136489;27;20282;-60
2023/09/07 07:01:42;;;;;;;19.52;18.52;;;;;;;-141.02;79.27;41745.69;5136540;27;20192;-60
2023/09/07 07:04:12;;;;;;;19.10;18.10;;;;;;;-141.02;79.88;41987.50;5136116;27;20630;-68
2023/09/07 07:06:39;;;;;;;19.25;18.25;;;;;;;-141.02;79.38;41885.78;5136087;27;20673;-59
2023/09/07 07:09:06;;;;;;;18.95;18.05;;;;;;;-141.02;79.20;41905.00;5136081;27;20235;-59
2023/09/07 07:11:33;;;;;;;19.98;18.98;;;;;;;-141.02;78.44;41880.03;5136022;27;20231;-59
2023/09/07 07:14:00;;;;;;;19.45;18.48;;;;;;;-141.02;79.44;41837.81;5135981;27;20279;-60
2023/09/07 07:16:27;;;;;;;19.98;19.02;;;;;;;-141.02;79.83;41883.88;5135953;27;20257;-60
2023/09/07 07:18:55;;;;;;;20.45;19.52;;;;;;;-141.02;78.24;41738.03;5135769;27;20239;-60
2023/09/07 07:21:23;;;;;;;20.30;19.30;;;;;;;-141.02;78.80;41860.84;5135934;27;20234;-59
2023/09/07 07:23:51;;;;;;;19.98;18.98;;;;;;;-141.02;77.38;42022.06;5135997;27;20640;-59
2023/09/07 07:26:18;;;;;;;21.10;20.10;;;;;;;-141.02;76.81;42169.84;5135793;27;20241;-59
2023/09/07 07:28:45;;;;;;;20.75;19.75;;;;;;;-141.02;75.79;42141.06;5135630;27;20731;-60
2023/09/07 07:31:12;;;;;;;20.77;19.77;;;;;;;-141.02;75.58;42428.97;5135634;27;20206;-60
2023/09/07 07:33:39;;;;;;;20.40;19.40;;;;;;;-141.02;76.14;42528.78;5135932;27;20283;-59
2023/09/07 07:36:08;;;;;;;19.85;18.88;;;;;;;-141.02;76.02;42590.22;5135532;27;20245;-59
2023/09/07 07:38:35;;;;;;;20.55;19.55;;;;;;;-141.02;74.66;42599.81;5135487;27;20609;-60
2023/09/07 07:41:03;;;;;;;20.17;19.17;;;;;;;-141.02;72.64;42999.13;5135457;27;20189;-59
2023/09/07 07:43:30;;;;;;;20.40;19.40;;;;;;;-141.02;70.54;43058.63;5135753;27;20196;-60
2023/09/07 07:45:57;;;;;;;21.00;20.00;;;;;;;-141.02;69.75;42999.13;5135209;27;20227;-60
2023/09/07 07:48:24;;;;;;;20.55;19.55;;;;;;;-141.02;69.10;43116.22;5135202;27;20287;-60
2023/09/07 07:50:52;;;;;;;21.35;20.35;;;;;;;-141.02;68.44;43112.41;5135642;27;20188;-59
2023/09/07 07:53:21;;;;;;;21.25;20.25;;;;;;;-141.02;69.20;43273.66;5135111;27;20220;-60
2023/09/07 07:55:48;;;;;;;21.60;20.50;;;;;;;-141.02;67.30;43438.78;5135172;27;20235;-60
2023/09/07 07:58:15;;;;;;;21.38;20.38;;;;;;;-141.02;65.29;43315.91;5135025;27;20224;-60
2023/09/07 08:00:44;;;;;;;20.92;19.83;;;;;;;-141.02;65.41;43406.16;5135424;27;20192;-59
2023/09/07 08:03:11;;;;;;;21.77;20.67;;;;;;;-141.02;64.09;43058.63;5135579;27;20220;-59
2023/09/07 08:05:39;;;;;;;22.35;21.25;;;;;;;-141.02;64.32;43035.59;5134930;27;20192;-60
2023/09/07 08:08:07;;;;;;;22.30;21.20;;;;;;;-141.02;63.60;42872.41;5134967;27;20646;-59
2023/09/07 08:10:37;;;;;;;21.35;20.25;;;;;;;-141.02;63.81;42799.47;5134805;27;20291;-60
2023/09/07 08:13:04;;;;;;;22.98;21.88;;;;;;;-141.02;63.12;42686.19;5135138;27;20250;-60
2023/09/07 08:15:33;;;;;;;22.27;21.27;;;;;;;-141.02;63.11;42430.91;5135112;27;20193;-59
2023/09/07 08:18:00;;;;;;;22.77;21.67;;;;;;;-141.02;62.99;42628.63;5134662;27;20633;-59
2023/09/07 08:20:27;;;;;;;22.60;21.50;;;;;;;-141.02;63.09;42730.34;5135019;27;20239;-59
2023/09/07 08:22:54;;;;;;;22.40;21.30;;;;;;;-141.02;61.78;42770.66;5134576;27;20228;-59
2023/09/07 08:25:21;;;;;;;22.38;21.27;;;;;;;-141.02;62.96;42953.03;5134606;27;20192;-59
2023/09/07 08:27:49;;;;;;;22.10;21.00;;;;;;;-141.02;62.00;42993.34;5134506;27;20188;-59
2023/09/07 08:30:18;;;;;;;22.38;21.27;;;;;;;-141.02;62.44;43108.56;5134888;27;20578;-59
2023/09/07 08:32:45;;;;;;;22.90;21.70;;;;;;;-141.02;62.80;42025.91;5134432;27;20550;-59
2023/09/07 08:35:13;;;;;;;21.55;20.35;;;;;;;-141.02;64.13;42582.53;5134376;27;20283;-59
2023/09/07 08:37:40;;;;;;;20.23;19.05;;;;;;;-141.02;59.32;42294.63;5134382;27;20200;-59
2023/09/07 08:40:09;;;;;;;20.40;19.30;;;;;;;-141.02;60.59;42302.28;5134488;27;20582;-59
2023/09/07 08:42:37;;;;;;;20.65;19.55;;;;;;;-141.02;57.31;42183.28;5134631;27;20208;-59
2023/09/07 08:45:08;;;;;;;21.52;20.33;;;;;;;-141.02;57.32;42252.38;5134153;27;20188;-65
2023/09/07 08:47:38;;;;;;;20.80;19.70;;;;;;;-141.02;58.36;42267.75;5134499;27;20188;-59
2023/09/07 08:50:07;;;;;;;21.17;20.08;;;;;;;-141.02;57.05;42148.75;5134439;27;20196;-59
2023/09/07 08:52:35;;;;;;;20.65;19.48;;;;;;;-141.02;57.73;42148.75;5134073;27;20232;-59
2023/09/07 08:55:04;;;;;;;20.55;19.45;;;;;;;-141.02;57.01;42162.16;5134018;27;20192;-59
2023/09/07 08:57:31;;;;;;;20.95;19.75;;;;;;;-141.02;56.71;42029.75;5134156;27;20271;-59
2023/09/07 08:59:59;;;;;;;20.88;19.67;;;;;;;-141.02;57.40;42062.38;5133293;27;20224;-59
2023/09/07 09:02:27;;;;;;;21.08;19.88;;;;;;;-141.02;57.81;42317.66;5133792;27;20287;-59
2023/09/07 09:04:54;;;;;;;20.50;19.33;;;;;;;-141.02;56.26;42390.59;5133697;27;20607;-59
2023/09/07 09:07:22;;;;;;;20.98;19.77;;;;;;;-141.02;56.18;42697.72;5133686;27;20646;-59
2023/09/07 09:09:49;;;;;;;20.98;19.88;;;;;;;-141.02;55.20;43012.56;5133697;27;20573;-59
2023/09/07 09:12:16;;;;;;;21.02;19.80;;;;;;;-141.02;53.43;42949.19;5133760;27;20292;-59
2023/09/07 09:14:45;;;;;;;20.58;19.27;;;;;;;-141.02;54.68;43123.91;5133549;27;20228;-59
2023/09/07 09:17:13;;;;;;;21.15;19.85;;;;;;;-141.02;54.24;42832.09;5133902;27;20649;-59
2023/09/07 09:19:42;;;;;;;20.50;19.20;;;;;;;-141.02;53.60;42716.91;5133384;27;20228;-59
2023/09/07 09:22:10;;;;;;;20.88;19.67;;;;;;;-141.02;54.13;42628.63;5134697;27;20188;-59
2023/09/07 09:24:37;;;;;;;20.88;19.67;;;;;;;-141.02;53.34;42684.28;5133774;27;20219;-60
2023/09/07 09:27:05;;;;;;;20.30;19.10;;;;;;;-141.02;52.36;42640.13;5133706;27;20276;-60
2023/09/07 09:29:34;;;;;;;20.42;19.23;;;;;;;-141.02;53.06;42797.53;5133725;27;20203;-59
2023/09/07 09:32:04;;;;;;;20.55;19.35;;;;;;;-141.02;54.50;42743.78;5133325;27;20192;-59
2023/09/07 09:34:34;;;;;;;20.42;19.23;;;;;;;-141.02;53.69;42755.31;5134262;27;20680;-60
2023/09/07 09:37:04;;;;;;;19.73;18.63;;;;;;;-141.02;54.04;42649.72;5133254;27;20192;-59
2023/09/07 09:39:31;;;;;;;20.30;19.10;;;;;;;-141.02;54.92;42455.84;5133172;27;20220;-59
2023/09/07 09:41:59;;;;;;;20.52;19.33;;;;;;;-141.02;54.89;42624.78;5133166;27;20652;-59
2023/09/07 09:44:26;;;;;;;20.48;19.27;;;;;;;-141.02;54.57;42739.94;5133138;27;20668;-59
2023/09/07 09:46:55;;;;;;;20.30;19.10;;;;;;;-141.02;55.20;43010.63;5133109;27;20197;-59
2023/09/07 09:49:23;;;;;;;20.13;18.92;;;;;;;-141.02;54.50;42720.75;5133057;27;20583;-75
2023/09/07 09:51:50;;;;;;;20.30;19.10;;;;;;;-141.02;53.38;42797.53;5133432;27;20284;-59
2023/09/07 09:54:19;;;;;;;20.23;19.02;;;;;;;-141.02;55.07;43016.41;5132966;27;20193;-59
2023/09/07 09:56:46;;;;;;;20.35;19.15;;;;;;;-141.02;53.84;43150.78;5133317;27;20196;-59
2023/09/07 09:59:14;;;;;;;20.23;19.02;;;;;;;-141.02;52.94;43340.88;5132847;27;20225;-59
2023/09/07 10:01:45;;;;;;;20.38;19.17;;;;;;;-141.02;51.71;42743.78;5132943;27;20283;-59
2023/09/07 10:04:15;;;;;;;19.75;18.65;;;;;;;-141.02;53.11;42663.16;5132938;27;20232;-59
2023/09/07 10:06:54;;;;;;;19.30;18.20;;;;;;;-141.02;53.67;42659.31;5133212;27;20192;-60
2023/09/07 10:09:23;;;;;;;18.85;17.85;;;;;;;-141.02;53.83;42402.09;5133316;27;20647;-59
2023/09/07 10:11:54;;;;;;;19.05;17.98;;;;;;;-141.02;53.66;42279.25;5137161;27;20196;-59
2023/09/07 10:14:22;;;;;;;19.45;18.35;;;;;;;-141.02;54.32;42333.00;5137087;27;20647;-59
2023/09/07 10:16:51;;;;;;;18.88;17.88;;;;;;;-141.02;53.88;42450.09;5137314;27;20193;-60
2023/09/07 10:19:19;;;;;;;19.40;18.30;;;;;;;-141.02;53.83;42651.66;5137354;27;20280;-59
2023/09/07 10:21:47;;;;;;;19.23;18.13;;;;;;;-141.02;55.17;42440.50;5137253;27;20210;-59
2023/09/07 10:24:26;;;;;;;19.25;18.15;;;;;;;-141.02;55.83;42515.34;5137302;27;20196;-59
2023/09/07 10:27:04;;;;;;;19.38;18.27;;;;;;;-141.02;54.82;42517.28;5137217;27;20219;-75
2023/09/07 10:29:42;;;;;;;19.60;18.50;;;;;;;-141.02;55.42;42538.38;5137212;27;20237;-59
2023/09/07 10:32:12;;;;;;;19.10;18.00;;;;;;;-141.02;55.75;42486.56;5136822;27;20224;-59
2023/09/07 10:34:43;;;;;;;19.33;18.23;;;;;;;-141.02;56.59;42313.81;5136770;27;20654;-72
2023/09/07 10:37:13;;;;;;;19.30;18.20;;;;;;;-141.02;56.85;42298.44;5136727;27;20177;-59
2023/09/07 10:39:43;;;;;;;19.25;18.15;;;;;;;-141.02;55.93;42503.84;5136879;27;20265;-59
2023/09/07 10:42:10;;;;;;;19.20;18.15;;;;;;;-141.02;55.16;42734.19;5136829;27;20241;-60
2023/09/07 10:44:36;;;;;;;19.05;18.05;;;;;;;-141.02;55.10;43098.94;5136600;27;20292;-59
2023/09/07 10:47:05;;;;;;;19.35;18.35;;;;;;;-141.02;53.98;43212.22;5136474;27;20192;-59
2023/09/07 10:49:32;;;;;;;20.42;19.23;;;;;;;-141.02;53.62;43133.50;5136456;27;20192;-59
2023/09/07 10:51:59;;;;;;;19.60;18.50;;;;;;;-141.02;53.95;42736.13;5136766;27;20276;-59
2023/09/07 10:54:26;;;;;;;20.23;19.08;;;;;;;-141.02;54.85;42659.31;5136588;27;20283;-59
2023/09/07 10:56:57;;;;;;;19.70;18.60;;;;;;;-141.02;55.39;42835.94;5136586;27;20232;-59
2023/09/07 10:59:24;;;;;;;19.48;18.38;;;;;;;-141.02;55.55;42847.47;5136541;27;20347;-59
2023/09/07 11:01:52;;;;;;;19.77;18.67;;;;;;;-141.02;55.81;42377.16;5136245;27;20669;-59
2023/09/07 11:04:20;;;;;;;19.77;18.58;;;;;;;-141.02;56.69;42317.66;5135963;27;20315;-59
2023/09/07 11:06:47;;;;;;;19.13;18.02;;;;;;;-141.02;56.76;42244.72;5136417;27;20228;-59
2023/09/07 11:09:16;;;;;;;19.15;18.05;;;;;;;-141.02;58.09;42336.84;5136119;27;20228;-70
2023/09/07 11:11:47;;;;;;;19.15;18.05;;;;;;;-141.02;57.86;42261.97;5135962;27;20199;-59
2023/09/07 11:14:16;;;;;;;19.38;18.17;;;;;;;-141.02;58.16;42371.38;5135992;27;20279;-75
2023/09/07 11:16:44;;;;;;;19.35;18.25;;;;;;;-141.02;58.41;42434.72;5136219;27;20192;-59
2023/09/07 11:19:11;;;;;;;19.30;18.10;;;;;;;-141.02;58.59;42407.84;5135854;27;20230;-59